sensor_id;sensor_type;location;lat;lon;timestamp;P1;durP1;ratioP1;P2;durP2;ratioP2
12593;SDS011;6362;50.208;9.182;2024-02-16T00:00:23;3.63;;;1.38;;
12593;SDS011;6362;50.208;9.182;2024-02-16T00:02:49;2.28;;;1.20;;
12593;SDS011;6362;50.208;9.182;2024-02-16T00:05:15;3.47;;;0.95;;
12593;SDS011;6362;50.208;9.182;2024-02-16T00:07:41;2.58;;;1.15;;
12593;SDS011;6362;50.208;9.182;2024-02-16T00:10:07;1.65;;;1.13;;
12593;SDS011;6362;50.208;9.182;2024-02-16T00:12:34;1.83;;;1.27;;
12593;SDS011;6362;50.208;9.182;2024-02-16T00:15:00;3.08;;;1.17;;
12593;SDS011;6362;50.208;9.182;2024-02-16T00:17:26;3.78;;;1.08;;
12593;SDS011;6362;50.208;9.182;2024-02-16T00:19:55;2.72;;;1.10;;
12593;SDS011;6362;50.208;9.182;2024-02-16T00:22:23;4.28;;;1.50;;
12593;SDS011;6362;50.208;9.182;2024-02-16T00:24:49;1.55;;;1.00;;
12593;SDS011;6362;50.208;9.182;2024-02-16T00:27:15;2.13;;;1.08;;
12593;SDS011;6362;50.208;9.182;2024-02-16T00:29:41;1.73;;;1.15;;
12593;SDS011;6362;50.208;9.182;2024-02-16T00:32:07;4.72;;;1.42;;
12593;SDS011;6362;50.208;9.182;2024-02-16T00:34:33;4.00;;;1.10;;
12593;SDS011;6362;50.208;9.182;2024-02-16T00:37:02;2.20;;;1.25;;
12593;SDS011;6362;50.208;9.182;2024-02-16T00:39:30;4.57;;;1.58;;
12593;SDS011;6362;50.208;9.182;2024-02-16T00:41:55;2.30;;;1.15;;
12593;SDS011;6362;50.208;9.182;2024-02-16T00:44:21;3.47;;;1.30;;
12593;SDS011;6362;50.208;9.182;2024-02-16T00:46:47;3.65;;;0.95;;
12593;SDS011;6362;50.208;9.182;2024-02-16T00:49:12;3.88;;;1.20;;
12593;SDS011;6362;50.208;9.182;2024-02-16T00:51:38;2.05;;;1.23;;
12593;SDS011;6362;50.208;9.182;2024-02-16T00:54:04;3.47;;;1.38;;
12593;SDS011;6362;50.208;9.182;2024-02-16T00:56:30;4.72;;;1.25;;
12593;SDS011;6362;50.208;9.182;2024-02-16T00:58:57;5.50;;;1.52;;
12593;SDS011;6362;50.208;9.182;2024-02-16T01:01:22;5.32;;;1.13;;
12593;SDS011;6362;50.208;9.182;2024-02-16T01:03:49;5.90;;;1.40;;
12593;SDS011;6362;50.208;9.182;2024-02-16T01:06:17;6.10;;;1.52;;
12593;SDS011;6362;50.208;9.182;2024-02-16T01:08:43;4.45;;;1.38;;
12593;SDS011;6362;50.208;9.182;2024-02-16T01:11:08;4.05;;;1.30;;
12593;SDS011;6362;50.208;9.182;2024-02-16T01:13:34;2.45;;;1.10;;
12593;SDS011;6362;50.208;9.182;2024-02-16T01:15:59;2.45;;;1.27;;
12593;SDS011;6362;50.208;9.182;2024-02-16T01:18:25;3.30;;;1.15;;
12593;SDS011;6362;50.208;9.182;2024-02-16T01:20:53;5.00;;;1.95;;
12593;SDS011;6362;50.208;9.182;2024-02-16T01:23:19;7.88;;;2.22;;
12593;SDS011;6362;50.208;9.182;2024-02-16T01:25:47;2.28;;;1.40;;
12593;SDS011;6362;50.208;9.182;2024-02-16T01:28:13;2.25;;;1.23;;
12593;SDS011;6362;50.208;9.182;2024-02-16T01:30:39;3.72;;;1.55;;
12593;SDS011;6362;50.208;9.182;2024-02-16T01:33:05;4.07;;;1.35;;
12593;SDS011;6362;50.208;9.182;2024-02-16T01:35:34;4.32;;;1.42;;
12593;SDS011;6362;50.208;9.182;2024-02-16T01:38:00;2.55;;;1.40;;
12593;SDS011;6362;50.208;9.182;2024-02-16T01:40:26;6.32;;;2.22;;
12593;SDS011;6362;50.208;9.182;2024-02-16T01:42:53;2.08;;;1.40;;
12593;SDS011;6362;50.208;9.182;2024-02-16T01:45:19;3.58;;;1.50;;
12593;SDS011;6362;50.208;9.182;2024-02-16T01:47:44;9.13;;;1.63;;
12593;SDS011;6362;50.208;9.182;2024-02-16T01:50:12;3.30;;;1.40;;
12593;SDS011;6362;50.208;9.182;2024-02-16T01:52:46;1.67;;;0.93;;
12593;SDS011;6362;50.208;9.182;2024-02-16T01:55:13;2.17;;;1.40;;
12593;SDS011;6362;50.208;9.182;2024-02-16T01:57:39;2.40;;;1.30;;
12593;SDS011;6362;50.208;9.182;2024-02-16T02:00:05;4.20;;;1.20;;
12593;SDS011;6362;50.208;9.182;2024-02-16T02:02:33;2.88;;;1.50;;
12593;SDS011;6362;50.208;9.182;2024-02-16T02:04:59;3.47;;;1.48;;
12593;SDS011;6362;50.208;9.182;2024-02-16T02:07:25;4.85;;;1.67;;
12593;SDS011;6362;50.208;9.182;2024-02-16T02:09:52;2.88;;;1.30;;
12593;SDS011;6362;50.208;9.182;2024-02-16T02:12:18;3.88;;;1.40;;
12593;SDS011;6362;50.208;9.182;2024-02-16T02:14:43;2.30;;;1.45;;
12593;SDS011;6362;50.208;9.182;2024-02-16T02:17:09;3.75;;;1.48;;
12593;SDS011;6362;50.208;9.182;2024-02-16T02:19:35;2.92;;;1.33;;
12593;SDS011;6362;50.208;9.182;2024-02-16T02:22:01;2.70;;;1.27;;
12593;SDS011;6362;50.208;9.182;2024-02-16T02:24:26;2.80;;;1.40;;
12593;SDS011;6362;50.208;9.182;2024-02-16T02:26:52;4.10;;;1.70;;
12593;SDS011;6362;50.208;9.182;2024-02-16T02:29:17;4.40;;;1.38;;
12593;SDS011;6362;50.208;9.182;2024-02-16T02:31:43;4.20;;;1.42;;
12593;SDS011;6362;50.208;9.182;2024-02-16T02:34:08;4.07;;;1.45;;
12593;SDS011;6362;50.208;9.182;2024-02-16T02:36:35;2.65;;;1.50;;
12593;SDS011;6362;50.208;9.182;2024-02-16T02:39:01;4.20;;;1.40;;
12593;SDS011;6362;50.208;9.182;2024-02-16T02:41:27;2.65;;;1.20;;
12593;SDS011;6362;50.208;9.182;2024-02-16T02:43:52;4.45;;;1.98;;
12593;SDS011;6362;50.208;9.182;2024-02-16T02:46:18;1.98;;;1.30;;
12593;SDS011;6362;50.208;9.182;2024-02-16T02:48:44;4.88;;;1.15;;
12593;SDS011;6362;50.208;9.182;2024-02-16T02:51:10;3.30;;;1.58;;
12593;SDS011;6362;50.208;9.182;2024-02-16T02:53:36;6.20;;;1.40;;
12593;SDS011;6362;50.208;9.182;2024-02-16T02:56:02;3.33;;;1.23;;
12593;SDS011;6362;50.208;9.182;2024-02-16T02:58:28;2.38;;;1.48;;
12593;SDS011;6362;50.208;9.182;2024-02-16T03:00:54;4.60;;;1.50;;
12593;SDS011;6362;50.208;9.182;2024-02-16T03:03:20;6.10;;;2.10;;
12593;SDS011;6362;50.208;9.182;2024-02-16T03:05:46;3.00;;;1.65;;
12593;SDS011;6362;50.208;9.182;2024-02-16T03:08:12;5.65;;;1.58;;
12593;SDS011;6362;50.208;9.182;2024-02-16T03:10:37;2.10;;;1.30;;
12593;SDS011;6362;50.208;9.182;2024-02-16T03:13:04;1.95;;;1.17;;
12593;SDS011;6362;50.208;9.182;2024-02-16T03:15:32;1.67;;;1.20;;
12593;SDS011;6362;50.208;9.182;2024-02-16T03:17:58;7.90;;;2.00;;
12593;SDS011;6362;50.208;9.182;2024-02-16T03:20:24;3.17;;;1.45;;
12593;SDS011;6362;50.208;9.182;2024-02-16T03:22:50;2.65;;;1.40;;
12593;SDS011;6362;50.208;9.182;2024-02-16T03:25:16;4.13;;;1.50;;
12593;SDS011;6362;50.208;9.182;2024-02-16T03:27:42;3.75;;;1.40;;
12593;SDS011;6362;50.208;9.182;2024-02-16T03:30:08;3.20;;;1.60;;
12593;SDS011;6362;50.208;9.182;2024-02-16T03:32:34;3.83;;;1.50;;
12593;SDS011;6362;50.208;9.182;2024-02-16T03:34:59;5.10;;;1.27;;
12593;SDS011;6362;50.208;9.182;2024-02-16T03:37:25;4.97;;;1.60;;
12593;SDS011;6362;50.208;9.182;2024-02-16T03:39:51;2.17;;;1.40;;
12593;SDS011;6362;50.208;9.182;2024-02-16T03:42:18;5.20;;;1.48;;
12593;SDS011;6362;50.208;9.182;2024-02-16T03:44:44;3.85;;;1.60;;
12593;SDS011;6362;50.208;9.182;2024-02-16T03:47:10;5.30;;;1.80;;
12593;SDS011;6362;50.208;9.182;2024-02-16T03:49:35;2.88;;;1.55;;
12593;SDS011;6362;50.208;9.182;2024-02-16T03:52:01;2.25;;;1.50;;
12593;SDS011;6362;50.208;9.182;2024-02-16T03:54:27;3.03;;;1.40;;
12593;SDS011;6362;50.208;9.182;2024-02-16T03:56:55;4.70;;;1.70;;
12593;SDS011;6362;50.208;9.182;2024-02-16T03:59:21;5.00;;;1.88;;
12593;SDS011;6362;50.208;9.182;2024-02-16T04:01:46;3.47;;;1.45;;
12593;SDS011;6362;50.208;9.182;2024-02-16T04:04:12;2.47;;;1.38;;
12593;SDS011;6362;50.208;9.182;2024-02-16T04:06:38;4.78;;;1.70;;
12593;SDS011;6362;50.208;9.182;2024-02-16T04:09:04;6.00;;;1.48;;
12593;SDS011;6362;50.208;9.182;2024-02-16T04:11:31;2.20;;;1.40;;
12593;SDS011;6362;50.208;9.182;2024-02-16T04:13:57;1.50;;;1.30;;
12593;SDS011;6362;50.208;9.182;2024-02-16T04:16:23;3.95;;;1.48;;
12593;SDS011;6362;50.208;9.182;2024-02-16T04:18:50;3.80;;;1.88;;
12593;SDS011;6362;50.208;9.182;2024-02-16T04:21:16;2.88;;;1.25;;
12593;SDS011;6362;50.208;9.182;2024-02-16T04:23:42;3.13;;;1.35;;
12593;SDS011;6362;50.208;9.182;2024-02-16T04:26:07;4.18;;;1.50;;
12593;SDS011;6362;50.208;9.182;2024-02-16T04:28:33;3.92;;;1.65;;
12593;SDS011;6362;50.208;9.182;2024-02-16T04:30:58;4.10;;;2.30;;
12593;SDS011;6362;50.208;9.182;2024-02-16T04:33:24;3.55;;;1.38;;
12593;SDS011;6362;50.208;9.182;2024-02-16T04:35:49;1.95;;;1.38;;
12593;SDS011;6362;50.208;9.182;2024-02-16T04:38:15;1.92;;;1.40;;
12593;SDS011;6362;50.208;9.182;2024-02-16T04:40:42;4.43;;;1.75;;
12593;SDS011;6362;50.208;9.182;2024-02-16T04:43:07;5.10;;;1.85;;
12593;SDS011;6362;50.208;9.182;2024-02-16T04:45:33;3.00;;;1.70;;
12593;SDS011;6362;50.208;9.182;2024-02-16T04:48:03;6.85;;;2.42;;
12593;SDS011;6362;50.208;9.182;2024-02-16T04:50:30;3.85;;;1.50;;
12593;SDS011;6362;50.208;9.182;2024-02-16T04:52:57;2.80;;;1.50;;
12593;SDS011;6362;50.208;9.182;2024-02-16T04:55:22;2.83;;;1.73;;
12593;SDS011;6362;50.208;9.182;2024-02-16T04:57:48;2.15;;;1.70;;
12593;SDS011;6362;50.208;9.182;2024-02-16T05:00:13;3.63;;;1.60;;
12593;SDS011;6362;50.208;9.182;2024-02-16T05:02:39;3.38;;;1.10;;
12593;SDS011;6362;50.208;9.182;2024-02-16T05:05:05;3.25;;;1.60;;
12593;SDS011;6362;50.208;9.182;2024-02-16T05:07:30;4.07;;;1.42;;
12593;SDS011;6362;50.208;9.182;2024-02-16T05:09:56;2.70;;;1.60;;
12593;SDS011;6362;50.208;9.182;2024-02-16T05:12:23;5.32;;;1.75;;
12593;SDS011;6362;50.208;9.182;2024-02-16T05:14:49;5.43;;;1.35;;
12593;SDS011;6362;50.208;9.182;2024-02-16T05:17:15;2.00;;;1.40;;
12593;SDS011;6362;50.208;9.182;2024-02-16T05:19:41;2.53;;;1.50;;
12593;SDS011;6362;50.208;9.182;2024-02-16T05:22:06;4.03;;;1.73;;
12593;SDS011;6362;50.208;9.182;2024-02-16T05:24:32;2.03;;;1.40;;
12593;SDS011;6362;50.208;9.182;2024-02-16T05:26:58;3.60;;;1.73;;
12593;SDS011;6362;50.208;9.182;2024-02-16T05:29:24;3.97;;;1.70;;
12593;SDS011;6362;50.208;9.182;2024-02-16T05:31:53;3.97;;;1.77;;
12593;SDS011;6362;50.208;9.182;2024-02-16T05:34:18;3.55;;;1.70;;
12593;SDS011;6362;50.208;9.182;2024-02-16T05:36:44;3.17;;;1.73;;
12593;SDS011;6362;50.208;9.182;2024-02-16T05:39:10;2.58;;;1.33;;
12593;SDS011;6362;50.208;9.182;2024-02-16T05:41:45;3.50;;;1.63;;
12593;SDS011;6362;50.208;9.182;2024-02-16T05:44:11;5.28;;;1.83;;
12593;SDS011;6362;50.208;9.182;2024-02-16T05:46:37;1.58;;;1.42;;
12593;SDS011;6362;50.208;9.182;2024-02-16T05:49:03;2.35;;;1.92;;
12593;SDS011;6362;50.208;9.182;2024-02-16T05:51:38;3.30;;;1.60;;
12593;SDS011;6362;50.208;9.182;2024-02-16T05:54:04;9.25;;;2.75;;
12593;SDS011;6362;50.208;9.182;2024-02-16T05:56:30;5.00;;;2.08;;
12593;SDS011;6362;50.208;9.182;2024-02-16T05:58:58;5.55;;;2.25;;
12593;SDS011;6362;50.208;9.182;2024-02-16T06:01:27;4.75;;;2.45;;
12593;SDS011;6362;50.208;9.182;2024-02-16T06:03:52;5.78;;;2.10;;
12593;SDS011;6362;50.208;9.182;2024-02-16T06:06:18;3.42;;;2.30;;
12593;SDS011;6362;50.208;9.182;2024-02-16T06:08:44;7.53;;;2.47;;
12593;SDS011;6362;50.208;9.182;2024-02-16T06:11:09;5.47;;;2.30;;
12593;SDS011;6362;50.208;9.182;2024-02-16T06:13:35;4.43;;;1.73;;
12593;SDS011;6362;50.208;9.182;2024-02-16T06:16:00;5.00;;;2.10;;
12593;SDS011;6362;50.208;9.182;2024-02-16T06:18:27;4.10;;;1.95;;
12593;SDS011;6362;50.208;9.182;2024-02-16T06:20:54;5.43;;;2.97;;
12593;SDS011;6362;50.208;9.182;2024-02-16T06:23:20;6.68;;;2.40;;
12593;SDS011;6362;50.208;9.182;2024-02-16T06:25:45;5.93;;;2.42;;
12593;SDS011;6362;50.208;9.182;2024-02-16T06:28:11;5.13;;;2.90;;
12593;SDS011;6362;50.208;9.182;2024-02-16T06:30:36;5.82;;;2.90;;
12593;SDS011;6362;50.208;9.182;2024-02-16T06:33:02;8.23;;;3.78;;
12593;SDS011;6362;50.208;9.182;2024-02-16T06:35:29;5.10;;;2.97;;
12593;SDS011;6362;50.208;9.182;2024-02-16T06:37:55;6.32;;;2.80;;
12593;SDS011;6362;50.208;9.182;2024-02-16T06:40:20;5.55;;;2.90;;
12593;SDS011;6362;50.208;9.182;2024-02-16T06:42:46;4.88;;;2.65;;
12593;SDS011;6362;50.208;9.182;2024-02-16T06:45:11;4.47;;;3.08;;
12593;SDS011;6362;50.208;9.182;2024-02-16T06:47:37;5.85;;;2.75;;
12593;SDS011;6362;50.208;9.182;2024-02-16T06:50:02;3.72;;;2.20;;
12593;SDS011;6362;50.208;9.182;2024-02-16T06:52:28;3.83;;;1.90;;
12593;SDS011;6362;50.208;9.182;2024-02-16T06:54:54;3.83;;;2.28;;
12593;SDS011;6362;50.208;9.182;2024-02-16T06:57:20;5.65;;;2.50;;
12593;SDS011;6362;50.208;9.182;2024-02-16T06:59:45;5.35;;;2.05;;
12593;SDS011;6362;50.208;9.182;2024-02-16T07:02:11;3.47;;;2.10;;
12593;SDS011;6362;50.208;9.182;2024-02-16T07:04:41;4.40;;;2.20;;
12593;SDS011;6362;50.208;9.182;2024-02-16T07:07:06;6.00;;;2.80;;
12593;SDS011;6362;50.208;9.182;2024-02-16T07:09:33;3.67;;;2.40;;
12593;SDS011;6362;50.208;9.182;2024-02-16T07:11:59;4.95;;;2.40;;
12593;SDS011;6362;50.208;9.182;2024-02-16T07:14:24;4.88;;;2.20;;
12593;SDS011;6362;50.208;9.182;2024-02-16T07:16:50;3.30;;;2.28;;
12593;SDS011;6362;50.208;9.182;2024-02-16T07:19:15;4.00;;;2.20;;
12593;SDS011;6362;50.208;9.182;2024-02-16T07:21:41;4.65;;;2.90;;
12593;SDS011;6362;50.208;9.182;2024-02-16T07:24:06;3.50;;;1.88;;
12593;SDS011;6362;50.208;9.182;2024-02-16T07:26:33;4.28;;;2.00;;
12593;SDS011;6362;50.208;9.182;2024-02-16T07:28:59;6.57;;;1.92;;
12593;SDS011;6362;50.208;9.182;2024-02-16T07:31:24;2.30;;;1.80;;
12593;SDS011;6362;50.208;9.182;2024-02-16T07:33:50;3.88;;;1.95;;
12593;SDS011;6362;50.208;9.182;2024-02-16T07:36:15;4.40;;;1.52;;
12593;SDS011;6362;50.208;9.182;2024-02-16T07:38:44;4.10;;;1.67;;
12593;SDS011;6362;50.208;9.182;2024-02-16T07:41:09;3.30;;;1.67;;
12593;SDS011;6362;50.208;9.182;2024-02-16T07:43:35;3.33;;;1.77;;
12593;SDS011;6362;50.208;9.182;2024-02-16T07:46:00;3.30;;;1.65;;
12593;SDS011;6362;50.208;9.182;2024-02-16T07:48:28;3.63;;;1.80;;
12593;SDS011;6362;50.208;9.182;2024-02-16T07:50:54;2.88;;;1.70;;
12593;SDS011;6362;50.208;9.182;2024-02-16T07:53:20;2.40;;;1.80;;
12593;SDS011;6362;50.208;9.182;2024-02-16T07:55:45;3.10;;;1.77;;
12593;SDS011;6362;50.208;9.182;2024-02-16T07:58:10;3.63;;;1.67;;
12593;SDS011;6362;50.208;9.182;2024-02-16T08:00:37;4.90;;;1.98;;
12593;SDS011;6362;50.208;9.182;2024-02-16T08:03:02;4.60;;;2.10;;
12593;SDS011;6362;50.208;9.182;2024-02-16T08:05:27;4.28;;;1.67;;
12593;SDS011;6362;50.208;9.182;2024-02-16T08:07:53;5.03;;;1.63;;
12593;SDS011;6362;50.208;9.182;2024-02-16T08:10:19;3.22;;;1.83;;
12593;SDS011;6362;50.208;9.182;2024-02-16T08:12:48;2.90;;;1.48;;
12593;SDS011;6362;50.208;9.182;2024-02-16T08:15:14;4.38;;;1.80;;
12593;SDS011;6362;50.208;9.182;2024-02-16T08:17:40;5.30;;;1.65;;
12593;SDS011;6362;50.208;9.182;2024-02-16T08:20:05;2.28;;;1.52;;
12593;SDS011;6362;50.208;9.182;2024-02-16T08:22:32;4.25;;;1.70;;
12593;SDS011;6362;50.208;9.182;2024-02-16T08:24:58;5.32;;;1.70;;
12593;SDS011;6362;50.208;9.182;2024-02-16T08:27:24;2.50;;;1.50;;
12593;SDS011;6362;50.208;9.182;2024-02-16T08:29:49;2.25;;;1.42;;
12593;SDS011;6362;50.208;9.182;2024-02-16T08:32:16;4.65;;;1.90;;
12593;SDS011;6362;50.208;9.182;2024-02-16T08:34:43;3.88;;;1.63;;
12593;SDS011;6362;50.208;9.182;2024-02-16T08:37:09;2.40;;;1.50;;
12593;SDS011;6362;50.208;9.182;2024-02-16T08:39:37;2.83;;;1.85;;
12593;SDS011;6362;50.208;9.182;2024-02-16T08:42:03;3.35;;;1.75;;
12593;SDS011;6362;50.208;9.182;2024-02-16T08:44:28;2.97;;;1.30;;
12593;SDS011;6362;50.208;9.182;2024-02-16T08:46:54;5.38;;;2.00;;
12593;SDS011;6362;50.208;9.182;2024-02-16T08:49:19;5.85;;;1.88;;
12593;SDS011;6362;50.208;9.182;2024-02-16T08:51:46;2.40;;;1.60;;
12593;SDS011;6362;50.208;9.182;2024-02-16T08:54:12;2.85;;;1.50;;
12593;SDS011;6362;50.208;9.182;2024-02-16T08:56:37;4.00;;;1.70;;
12593;SDS011;6362;50.208;9.182;2024-02-16T08:59:04;2.90;;;1.85;;
12593;SDS011;6362;50.208;9.182;2024-02-16T09:01:34;4.60;;;1.80;;
12593;SDS011;6362;50.208;9.182;2024-02-16T09:04:02;3.22;;;1.60;;
12593;SDS011;6362;50.208;9.182;2024-02-16T09:06:28;2.03;;;1.27;;
12593;SDS011;6362;50.208;9.182;2024-02-16T09:08:54;3.28;;;1.50;;
12593;SDS011;6362;50.208;9.182;2024-02-16T09:11:20;2.33;;;1.58;;
12593;SDS011;6362;50.208;9.182;2024-02-16T09:13:45;3.28;;;1.40;;
12593;SDS011;6362;50.208;9.182;2024-02-16T09:16:11;4.72;;;2.88;;
12593;SDS011;6362;50.208;9.182;2024-02-16T09:18:36;3.53;;;2.00;;
12593;SDS011;6362;50.208;9.182;2024-02-16T09:21:03;3.67;;;1.60;;
12593;SDS011;6362;50.208;9.182;2024-02-16T09:23:29;3.33;;;1.73;;
12593;SDS011;6362;50.208;9.182;2024-02-16T09:25:54;3.47;;;1.70;;
12593;SDS011;6362;50.208;9.182;2024-02-16T09:28:20;5.72;;;2.10;;
12593;SDS011;6362;50.208;9.182;2024-02-16T09:30:46;3.38;;;1.60;;
12593;SDS011;6362;50.208;9.182;2024-02-16T09:33:12;3.55;;;1.75;;
12593;SDS011;6362;50.208;9.182;2024-02-16T09:35:38;4.32;;;2.08;;
12593;SDS011;6362;50.208;9.182;2024-02-16T09:38:05;3.38;;;1.73;;
12593;SDS011;6362;50.208;9.182;2024-02-16T09:40:30;3.53;;;1.73;;
12593;SDS011;6362;50.208;9.182;2024-02-16T09:42:56;4.45;;;1.65;;
12593;SDS011;6362;50.208;9.182;2024-02-16T09:45:21;3.22;;;1.60;;
12593;SDS011;6362;50.208;9.182;2024-02-16T09:47:49;2.58;;;1.70;;
12593;SDS011;6362;50.208;9.182;2024-02-16T09:50:16;2.35;;;1.50;;
12593;SDS011;6362;50.208;9.182;2024-02-16T09:52:46;3.03;;;1.48;;
12593;SDS011;6362;50.208;9.182;2024-02-16T09:55:13;3.80;;;2.05;;
12593;SDS011;6362;50.208;9.182;2024-02-16T09:57:40;5.90;;;1.80;;
12593;SDS011;6362;50.208;9.182;2024-02-16T10:00:05;4.90;;;2.65;;
12593;SDS011;6362;50.208;9.182;2024-02-16T10:02:44;5.15;;;1.77;;
12593;SDS011;6362;50.208;9.182;2024-02-16T10:05:12;4.72;;;1.75;;
12593;SDS011;6362;50.208;9.182;2024-02-16T10:07:41;2.33;;;1.73;;
12593;SDS011;6362;50.208;9.182;2024-02-16T10:10:23;4.57;;;1.88;;
12593;SDS011;6362;50.208;9.182;2024-02-16T10:12:49;3.17;;;1.63;;
12593;SDS011;6362;50.208;9.182;2024-02-16T10:15:25;6.50;;;1.98;;
12593;SDS011;6362;50.208;9.182;2024-02-16T10:17:57;2.63;;;2.00;;
12593;SDS011;6362;50.208;9.182;2024-02-16T10:20:26;3.65;;;1.90;;
12593;SDS011;6362;50.208;9.182;2024-02-16T10:23:11;2.33;;;1.65;;
12593;SDS011;6362;50.208;9.182;2024-02-16T10:25:38;6.93;;;2.22;;
12593;SDS011;6362;50.208;9.182;2024-02-16T10:28:06;5.45;;;2.30;;
12593;SDS011;6362;50.208;9.182;2024-02-16T10:30:36;4.65;;;1.60;;
12593;SDS011;6362;50.208;9.182;2024-02-16T10:33:04;6.90;;;2.25;;
12593;SDS011;6362;50.208;9.182;2024-02-16T10:35:30;4.80;;;2.70;;
12593;SDS011;6362;50.208;9.182;2024-02-16T10:37:58;3.80;;;1.85;;
12593;SDS011;6362;50.208;9.182;2024-02-16T10:40:29;10.40;;;2.13;;
12593;SDS011;6362;50.208;9.182;2024-02-16T10:42:58;2.47;;;1.52;;
12593;SDS011;6362;50.208;9.182;2024-02-16T10:45:29;6.35;;;2.85;;
12593;SDS011;6362;50.208;9.182;2024-02-16T10:47:56;4.93;;;2.03;;
12593;SDS011;6362;50.208;9.182;2024-02-16T10:50:21;5.90;;;1.65;;
12593;SDS011;6362;50.208;9.182;2024-02-16T10:52:48;3.38;;;1.65;;
12593;SDS011;6362;50.208;9.182;2024-02-16T10:55:15;5.00;;;2.00;;
12593;SDS011;6362;50.208;9.182;2024-02-16T10:57:41;5.13;;;1.65;;
12593;SDS011;6362;50.208;9.182;2024-02-16T11:00:09;5.22;;;1.77;;
12593;SDS011;6362;50.208;9.182;2024-02-16T11:02:52;2.45;;;1.38;;
12593;SDS011;6362;50.208;9.182;2024-02-16T11:05:36;5.25;;;1.77;;
12593;SDS011;6362;50.208;9.182;2024-02-16T11:08:14;5.05;;;1.95;;
12593;SDS011;6362;50.208;9.182;2024-02-16T11:10:41;3.38;;;1.60;;
12593;SDS011;6362;50.208;9.182;2024-02-16T11:13:21;5.50;;;1.70;;
12593;SDS011;6362;50.208;9.182;2024-02-16T11:15:48;4.90;;;1.58;;
12593;SDS011;6362;50.208;9.182;2024-02-16T11:18:24;3.72;;;1.40;;
12593;SDS011;6362;50.208;9.182;2024-02-16T11:20:49;4.32;;;1.80;;
12593;SDS011;6362;50.208;9.182;2024-02-16T11:23:15;3.58;;;1.60;;
12593;SDS011;6362;50.208;9.182;2024-02-16T11:25:49;3.08;;;1.42;;
12593;SDS011;6362;50.208;9.182;2024-02-16T11:28:16;3.90;;;1.90;;
12593;SDS011;6362;50.208;9.182;2024-02-16T11:30:43;2.97;;;1.50;;
12593;SDS011;6362;50.208;9.182;2024-02-16T11:33:12;3.22;;;2.05;;
12593;SDS011;6362;50.208;9.182;2024-02-16T11:35:37;5.68;;;1.75;;
12593;SDS011;6362;50.208;9.182;2024-02-16T11:38:03;3.58;;;1.95;;
12593;SDS011;6362;50.208;9.182;2024-02-16T11:40:30;3.85;;;2.22;;
12593;SDS011;6362;50.208;9.182;2024-02-16T11:42:59;4.90;;;1.58;;
12593;SDS011;6362;50.208;9.182;2024-02-16T11:45:25;5.35;;;1.85;;
12593;SDS011;6362;50.208;9.182;2024-02-16T11:48:02;4.65;;;1.88;;
12593;SDS011;6362;50.208;9.182;2024-02-16T11:50:34;2.78;;;1.58;;
12593;SDS011;6362;50.208;9.182;2024-02-16T11:53:00;5.50;;;1.85;;
12593;SDS011;6362;50.208;9.182;2024-02-16T11:55:26;3.88;;;1.70;;
12593;SDS011;6362;50.208;9.182;2024-02-16T11:57:51;2.95;;;1.63;;
12593;SDS011;6362;50.208;9.182;2024-02-16T12:00:17;4.63;;;2.10;;
12593;SDS011;6362;50.208;9.182;2024-02-16T12:02:43;3.80;;;1.77;;
12593;SDS011;6362;50.208;9.182;2024-02-16T12:05:08;4.63;;;2.03;;
12593;SDS011;6362;50.208;9.182;2024-02-16T12:07:37;5.10;;;1.80;;
12593;SDS011;6362;50.208;9.182;2024-02-16T12:10:05;3.92;;;1.85;;
12593;SDS011;6362;50.208;9.182;2024-02-16T12:12:31;5.63;;;2.00;;
12593;SDS011;6362;50.208;9.182;2024-02-16T12:14:58;3.75;;;1.45;;
12593;SDS011;6362;50.208;9.182;2024-02-16T12:17:23;7.00;;;1.95;;
12593;SDS011;6362;50.208;9.182;2024-02-16T12:19:50;5.28;;;1.95;;
12593;SDS011;6362;50.208;9.182;2024-02-16T12:22:20;4.95;;;1.90;;
12593;SDS011;6362;50.208;9.182;2024-02-16T12:24:46;4.75;;;2.13;;
12593;SDS011;6362;50.208;9.182;2024-02-16T12:27:12;4.63;;;1.63;;
12593;SDS011;6362;50.208;9.182;2024-02-16T12:29:38;3.45;;;1.75;;
12593;SDS011;6362;50.208;9.182;2024-02-16T12:32:04;3.10;;;1.70;;
12593;SDS011;6362;50.208;9.182;2024-02-16T12:34:30;5.00;;;1.77;;
12593;SDS011;6362;50.208;9.182;2024-02-16T12:36:56;6.63;;;1.98;;
12593;SDS011;6362;50.208;9.182;2024-02-16T12:39:21;2.65;;;1.60;;
12593;SDS011;6362;50.208;9.182;2024-02-16T12:41:47;2.65;;;1.48;;
12593;SDS011;6362;50.208;9.182;2024-02-16T12:44:13;6.05;;;1.92;;
12593;SDS011;6362;50.208;9.182;2024-02-16T12:46:39;6.03;;;1.92;;
12593;SDS011;6362;50.208;9.182;2024-02-16T12:49:05;4.22;;;1.83;;
12593;SDS011;6362;50.208;9.182;2024-02-16T12:51:32;5.25;;;1.50;;
12593;SDS011;6362;50.208;9.182;2024-02-16T12:53:57;5.22;;;1.80;;
12593;SDS011;6362;50.208;9.182;2024-02-16T12:56:25;3.13;;;1.52;;
12593;SDS011;6362;50.208;9.182;2024-02-16T12:58:51;4.22;;;1.88;;
12593;SDS011;6362;50.208;9.182;2024-02-16T13:01:16;3.22;;;1.90;;
12593;SDS011;6362;50.208;9.182;2024-02-16T13:03:44;5.18;;;1.65;;
12593;SDS011;6362;50.208;9.182;2024-02-16T13:06:10;3.63;;;1.70;;
12593;SDS011;6362;50.208;9.182;2024-02-16T13:08:36;5.50;;;2.05;;
12593;SDS011;6362;50.208;9.182;2024-02-16T13:11:02;4.57;;;2.15;;
12593;SDS011;6362;50.208;9.182;2024-02-16T13:13:28;7.47;;;2.08;;
12593;SDS011;6362;50.208;9.182;2024-02-16T13:15:54;4.78;;;1.95;;
12593;SDS011;6362;50.208;9.182;2024-02-16T13:18:21;4.95;;;1.73;;
12593;SDS011;6362;50.208;9.182;2024-02-16T13:20:46;5.57;;;2.00;;
12593;SDS011;6362;50.208;9.182;2024-02-16T13:23:12;5.93;;;1.77;;
12593;SDS011;6362;50.208;9.182;2024-02-16T13:25:38;6.65;;;2.03;;
12593;SDS011;6362;50.208;9.182;2024-02-16T13:28:03;4.25;;;1.85;;
12593;SDS011;6362;50.208;9.182;2024-02-16T13:30:30;4.13;;;1.75;;
12593;SDS011;6362;50.208;9.182;2024-02-16T13:32:55;6.22;;;1.90;;
12593;SDS011;6362;50.208;9.182;2024-02-16T13:35:21;4.38;;;2.10;;
12593;SDS011;6362;50.208;9.182;2024-02-16T13:37:46;6.68;;;2.60;;
12593;SDS011;6362;50.208;9.182;2024-02-16T13:40:12;7.90;;;2.97;;
12593;SDS011;6362;50.208;9.182;2024-02-16T13:42:41;8.55;;;2.20;;
12593;SDS011;6362;50.208;9.182;2024-02-16T13:45:11;5.10;;;1.70;;
12593;SDS011;6362;50.208;9.182;2024-02-16T13:47:37;4.07;;;1.80;;
12593;SDS011;6362;50.208;9.182;2024-02-16T13:50:06;3.05;;;1.60;;
12593;SDS011;6362;50.208;9.182;2024-02-16T13:52:32;6.00;;;2.00;;
12593;SDS011;6362;50.208;9.182;2024-02-16T13:54:57;5.32;;;1.98;;
12593;SDS011;6362;50.208;9.182;2024-02-16T13:57:23;5.38;;;1.90;;
12593;SDS011;6362;50.208;9.182;2024-02-16T13:59:48;4.55;;;1.70;;
12593;SDS011;6362;50.208;9.182;2024-02-16T14:02:14;7.13;;;2.30;;
12593;SDS011;6362;50.208;9.182;2024-02-16T14:04:40;3.97;;;1.77;;
12593;SDS011;6362;50.208;9.182;2024-02-16T14:07:06;5.10;;;2.22;;
12593;SDS011;6362;50.208;9.182;2024-02-16T14:09:31;4.38;;;1.40;;
12593;SDS011;6362;50.208;9.182;2024-02-16T14:11:57;8.25;;;1.92;;
12593;SDS011;6362;50.208;9.182;2024-02-16T14:14:24;3.05;;;2.00;;
12593;SDS011;6362;50.208;9.182;2024-02-16T14:16:50;5.75;;;2.10;;
12593;SDS011;6362;50.208;9.182;2024-02-16T14:19:16;5.95;;;2.40;;
12593;SDS011;6362;50.208;9.182;2024-02-16T14:21:45;4.43;;;1.67;;
12593;SDS011;6362;50.208;9.182;2024-02-16T14:24:12;7.57;;;2.20;;
12593;SDS011;6362;50.208;9.182;2024-02-16T14:26:38;5.40;;;2.00;;
12593;SDS011;6362;50.208;9.182;2024-02-16T14:29:06;7.65;;;1.77;;
12593;SDS011;6362;50.208;9.182;2024-02-16T14:31:32;9.60;;;1.73;;
12593;SDS011;6362;50.208;9.182;2024-02-16T14:34:01;6.57;;;1.92;;
12593;SDS011;6362;50.208;9.182;2024-02-16T14:36:26;4.57;;;1.85;;
12593;SDS011;6362;50.208;9.182;2024-02-16T14:38:52;6.15;;;1.65;;
12593;SDS011;6362;50.208;9.182;2024-02-16T14:41:17;6.93;;;2.33;;
12593;SDS011;6362;50.208;9.182;2024-02-16T14:43:42;8.30;;;2.20;;
12593;SDS011;6362;50.208;9.182;2024-02-16T14:46:08;5.57;;;2.25;;
12593;SDS011;6362;50.208;9.182;2024-02-16T14:48:34;4.00;;;1.90;;
12593;SDS011;6362;50.208;9.182;2024-02-16T14:51:00;4.85;;;1.98;;
12593;SDS011;6362;50.208;9.182;2024-02-16T14:53:26;6.88;;;2.42;;
12593;SDS011;6362;50.208;9.182;2024-02-16T14:55:52;4.63;;;1.85;;